Time;durP1;ratioP1;P1;durP2;ratioP2;P2;SDS_P1;SDS_P2;PMS_P1;PMS_P2;Temp;Humidity;BMP_temperature;BMP_pressure;BME280_temperature;BME280_humidity;BME280_pressure;Samples;Min_cycle;Max_cycle;Signal;HPM_P1;HPM_P2
2024/01/11 00:01:49;;;;;;;115.20;45.75;;;-6.60;99.90;;;;;;4993117;28;20046;-78
2024/01/11 00:04:36;;;;;;;119.35;45.30;;;-6.60;99.90;;;;;;4997027;28;20077;-76
2024/01/11 00:07:24;;;;;;;109.45;45.05;;;-6.70;99.90;;;;;;4976173;28;20055;-78
2024/01/11 00:10:11;;;;;;;110.03;48.30;;;-6.80;99.90;;;;;;4986440;28;20046;-78
2024/01/11 00:12:59;;;;;;;110.95;47.53;;;-6.80;99.90;;;;;;4973609;28;20043;-78
2024/01/11 00:15:46;;;;;;;107.95;46.22;;;-6.80;99.90;;;;;;4990098;28;20448;-78
2024/01/11 00:18:34;;;;;;;117.88;45.83;;;-6.60;99.90;;;;;;4977465;28;20069;-76
2024/01/11 00:21:22;;;;;;;109.97;45.63;;;-6.60;99.90;;;;;;5001771;28;20046;-79
2024/01/11 00:24:09;;;;;;;124.10;47.30;;;-6.60;99.90;;;;;;4983610;28;20046;-79
2024/01/11 00:26:59;;;;;;;108.13;44.30;;;-6.60;99.90;;;;;;4956984;28;20047;-76
2024/01/11 00:29:46;;;;;;;111.72;46.95;;;-6.80;99.90;;;;;;4990849;28;20053;-77
2024/01/11 00:32:33;;;;;;;112.82;45.53;;;-6.80;99.90;;;;;;4982523;28;20046;-76
2024/01/11 00:35:21;;;;;;;121.68;46.88;;;-6.80;99.90;;;;;;4985025;28;20056;-78
2024/01/11 00:38:08;;;;;;;117.18;49.08;;;-6.80;99.90;;;;;;4987142;28;20046;-77
2024/01/11 00:40:55;;;;;;;111.85;46.38;;;-6.80;99.90;;;;;;4982299;28;20050;-75
2024/01/11 00:43:44;;;;;;;116.35;46.88;;;-6.80;99.90;;;;;;4978674;28;20143;-78
2024/01/11 00:46:32;;;;;;;105.18;46.38;;;-6.80;99.90;;;;;;4959472;28;20042;-77
2024/01/11 00:49:19;;;;;;;110.93;45.78;;;-6.90;99.90;;;;;;4976736;28;20497;-77
2024/01/11 00:52:07;;;;;;;101.90;43.10;;;-6.80;99.90;;;;;;4989043;28;20050;-78
2024/01/11 00:54:56;;;;;;;112.40;45.13;;;-6.80;99.90;;;;;;4985644;28;20031;-78
2024/01/11 00:57:43;;;;;;;117.30;44.30;;;-6.90;99.90;;;;;;4963070;28;20672;-78
2024/01/11 01:00:31;;;;;;;105.20;42.92;;;-6.80;99.90;;;;;;4980333;28;20046;-75
2024/01/11 01:03:20;;;;;;;113.95;44.53;;;-6.90;99.90;;;;;;4987664;28;20125;-79
2024/01/11 01:06:08;;;;;;;99.68;43.75;;;-6.90;99.90;;;;;;4986099;28;20043;-79
2024/01/11 01:08:55;;;;;;;112.78;45.10;;;-7.00;99.90;;;;;;4978127;28;20106;-78
2024/01/11 01:11:45;;;;;;;107.80;44.03;;;-7.00;99.90;;;;;;4983832;28;20042;-77
2024/01/11 01:14:32;;;;;;;116.30;45.78;;;-7.00;99.90;;;;;;4972017;28;20134;-76
2024/01/11 01:17:19;;;;;;;107.75;44.40;;;-7.00;99.90;;;;;;4972566;28;20046;-77
2024/01/11 01:21:00;;;;;;;110.95;45.42;;;-7.10;99.90;;;;;;4958857;28;20515;-76
2024/01/11 01:23:48;;;;;;;105.97;43.47;;;-6.90;99.90;;;;;;4983948;28;20047;-80
2024/01/11 01:26:35;;;;;;;113.88;46.28;;;-6.80;99.90;;;;;;4983672;28;20042;-76
2024/01/11 01:29:24;;;;;;;119.38;50.78;;;-6.80;99.90;;;;;;4991481;28;20026;-75
2024/01/11 01:32:11;;;;;;;118.35;45.88;;;-6.80;99.90;;;;;;4978334;28;20050;-79
2024/01/11 01:35:00;;;;;;;110.03;43.80;;;-6.70;99.90;;;;;;4982080;28;20120;-77
2024/01/11 01:37:48;;;;;;;115.18;46.72;;;-6.70;99.90;;;;;;4983969;28;20046;-76
2024/01/11 01:40:38;;;;;;;115.05;48.30;;;-6.80;99.90;;;;;;4978616;28;20050;-76
2024/01/11 01:43:25;;;;;;;117.72;46.85;;;-6.80;99.90;;;;;;4978753;28;20061;-77
2024/01/11 01:46:18;;;;;;;109.75;45.70;;;-6.90;99.90;;;;;;4978063;28;20050;-77
2024/01/11 01:49:07;;;;;;;109.97;45.28;;;-7.00;99.90;;;;;;4975627;28;20042;-77
2024/01/11 01:51:55;;;;;;;112.35;48.83;;;-7.00;99.90;;;;;;4986509;28;20057;-77
2024/01/11 01:54:43;;;;;;;116.68;50.90;;;-7.10;99.90;;;;;;4986027;28;20039;-76
2024/01/11 01:57:35;;;;;;;124.72;50.10;;;-7.00;99.90;;;;;;4984453;28;20045;-75
2024/01/11 02:00:22;;;;;;;109.40;45.33;;;-6.90;99.90;;;;;;4970758;28;20455;-77
2024/01/11 02:03:10;;;;;;;109.70;45.25;;;-6.90;99.90;;;;;;4985891;28;20055;-75
2024/01/11 02:05:58;;;;;;;121.05;46.33;;;-6.90;99.90;;;;;;4988429;28;20435;-76
2024/01/11 02:08:49;;;;;;;111.90;45.88;;;-7.00;99.90;;;;;;4969435;28;20043;-76
2024/01/11 02:11:39;;;;;;;103.63;44.93;;;-7.00;99.90;;;;;;4981162;28;20128;-78
2024/01/11 02:14:26;;;;;;;115.47;45.50;;;-7.00;99.90;;;;;;4961954;28;20518;-77
2024/01/11 02:17:13;;;;;;;112.82;45.80;;;-7.10;99.90;;;;;;4979046;28;20752;-76
2024/01/11 02:20:03;;;;;;;110.63;43.65;;;-7.20;99.90;;;;;;4968246;28;20050;-75
2024/01/11 02:22:57;;;;;;;116.13;46.10;;;-7.30;99.90;;;;;;4970496;28;20072;-77
2024/01/11 02:25:46;;;;;;;110.53;46.50;;;-7.30;99.90;;;;;;4976487;28;20066;-76
2024/01/11 02:28:34;;;;;;;102.47;44.38;;;-7.20;99.90;;;;;;4974838;28;20053;-76
2024/01/11 02:31:22;;;;;;;105.75;44.15;;;-7.20;99.90;;;;;;4977516;28;20062;-76
2024/01/11 02:34:10;;;;;;;108.40;45.17;;;-7.10;99.90;;;;;;4984153;28;20061;-75
2024/01/11 02:37:05;;;;;;;113.03;45.38;;;-7.10;99.90;;;;;;4962989;28;20046;-76
2024/01/11 02:39:55;;;;;;;106.38;42.75;;;-7.20;99.90;;;;;;4977897;28;20842;-75
2024/01/11 02:42:42;;;;;;;105.60;43.47;;;-7.30;99.90;;;;;;4972512;28;20039;-77
2024/01/11 02:45:30;;;;;;;109.35;45.00;;;-7.30;99.90;;;;;;4982679;28;20042;-76
2024/01/11 02:48:18;;;;;;;116.70;46.15;;;-7.30;99.90;;;;;;4979534;28;20053;-77
2024/01/11 02:51:06;;;;;;;107.43;45.22;;;-7.30;99.90;;;;;;4978117;28;20051;-77
2024/01/11 02:53:57;;;;;;;108.95;44.50;;;-7.30;99.90;;;;;;4976354;28;20042;-77
2024/01/11 02:56:45;;;;;;;113.47;44.90;;;-7.20;99.90;;;;;;4967300;28;20574;-78
2024/01/11 02:59:33;;;;;;;114.88;44.47;;;-7.20;99.90;;;;;;4979508;28;20042;-77
2024/01/11 03:02:20;;;;;;;105.15;42.40;;;-7.20;99.90;;;;;;4964681;28;20054;-77
2024/01/11 03:05:11;;;;;;;108.97;43.38;;;-7.20;99.90;;;;;;4972644;28;20484;-77
2024/01/11 03:08:00;;;;;;;114.07;44.38;;;-7.30;99.90;;;;;;4976832;28;20057;-74
2024/01/11 03:10:48;;;;;;;101.97;42.63;;;-7.40;99.90;;;;;;5003006;28;20084;-77
2024/01/11 03:13:36;;;;;;;105.07;43.78;;;-7.50;99.90;;;;;;4980460;28;20101;-76
2024/01/11 03:16:23;;;;;;;114.22;44.58;;;-7.50;99.90;;;;;;4999978;28;20892;-76
2024/01/11 03:19:10;;;;;;;107.15;42.47;;;-7.60;99.90;;;;;;4973849;28;21139;-75
2024/01/11 03:22:02;;;;;;;110.03;44.00;;;-7.60;99.90;;;;;;4981438;28;20043;-77
2024/01/11 03:24:51;;;;;;;117.20;44.05;;;-7.70;99.90;;;;;;4971926;28;20196;-76
2024/01/11 03:27:38;;;;;;;106.40;43.15;;;-7.70;99.90;;;;;;4976313;28;20042;-76
2024/01/11 03:30:26;;;;;;;103.80;44.15;;;-7.70;99.90;;;;;;4989711;28;20034;-77
2024/01/11 03:33:16;;;;;;;111.93;42.15;;;-7.70;99.90;;;;;;4988518;28;20052;-79
2024/01/11 03:36:11;;;;;;;118.97;43.97;;;-7.60;99.90;;;;;;4967136;28;20050;-77
2024/01/11 03:38:58;;;;;;;104.47;43.35;;;-7.60;99.90;;;;;;4975571;28;20050;-75
2024/01/11 03:41:47;;;;;;;105.32;41.85;;;-7.50;99.90;;;;;;4982983;28;20038;-78
2024/01/11 03:44:37;;;;;;;99.03;39.70;;;-7.60;99.90;;;;;;4983561;28;20042;-77
2024/01/11 03:47:25;;;;;;;102.07;43.03;;;-7.70;99.90;;;;;;4986277;28;20046;-76
2024/01/11 03:50:13;;;;;;;109.63;40.83;;;-7.80;99.90;;;;;;4983376;28;20050;-79
2024/01/11 03:53:01;;;;;;;98.82;41.35;;;-7.80;99.90;;;;;;4986412;28;20046;-76
2024/01/11 03:55:50;;;;;;;102.97;42.35;;;-7.80;99.90;;;;;;4982352;28;20053;-79
2024/01/11 03:58:39;;;;;;;107.25;41.88;;;-7.90;99.90;;;;;;4973262;28;20067;-79
2024/01/11 04:01:28;;;;;;;104.80;41.67;;;-7.80;99.90;;;;;;4981262;28;20451;-78
2024/01/11 04:04:15;;;;;;;107.18;41.22;;;-7.70;99.90;;;;;;4981510;28;20054;-77
2024/01/11 04:07:03;;;;;;;107.97;42.47;;;-7.70;99.90;;;;;;4985059;28;20135;-75
2024/01/11 04:09:52;;;;;;;103.07;41.70;;;-7.70;99.90;;;;;;4985761;28;20047;-79
2024/01/11 04:12:39;;;;;;;106.05;43.03;;;-7.80;99.90;;;;;;4981174;28;20035;-78
2024/01/11 04:15:26;;;;;;;102.93;42.10;;;-7.90;99.90;;;;;;4983142;28;20435;-78
2024/01/11 04:18:15;;;;;;;101.78;42.10;;;-7.90;99.90;;;;;;4994327;28;20046;-77
2024/01/11 04:21:03;;;;;;;109.40;42.78;;;-7.90;99.90;;;;;;4977802;28;20114;-77
2024/01/11 04:23:51;;;;;;;110.40;43.92;;;-7.90;99.90;;;;;;4979645;28;20415;-78
2024/01/11 04:26:38;;;;;;;108.50;44.30;;;-7.90;99.90;;;;;;4974227;28;20049;-77
2024/01/11 04:29:26;;;;;;;105.15;43.17;;;-7.90;99.90;;;;;;4972152;28;20049;-77
2024/01/11 04:32:13;;;;;;;95.82;41.92;;;-7.90;99.90;;;;;;4973529;28;20930;-77
2024/01/11 04:35:02;;;;;;;102.40;43.97;;;-7.90;99.90;;;;;;4975722;28;20050;-75
2024/01/11 04:37:49;;;;;;;110.25;43.95;;;-7.90;99.90;;;;;;4973944;28;20042;-76
2024/01/11 04:40:37;;;;;;;111.70;43.08;;;-7.90;99.90;;;;;;4977146;28;20131;-77
2024/01/11 04:43:24;;;;;;;120.90;45.50;;;-7.90;99.90;;;;;;4977187;28;20128;-75
2024/01/11 04:46:22;;;;;;;118.78;43.25;;;-7.80;99.90;;;;;;4980054;28;20069;-78
2024/01/11 04:49:09;;;;;;;107.15;41.38;;;-7.60;99.90;;;;;;4987553;28;20053;-75
2024/01/11 04:51:57;;;;;;;110.35;42.97;;;-7.60;99.90;;;;;;4979574;28;20119;-77
2024/01/11 04:54:44;;;;;;;105.90;43.63;;;-7.70;99.90;;;;;;4979904;28;20100;-75
2024/01/11 04:57:34;;;;;;;98.20;40.55;;;-7.90;99.90;;;;;;4975378;28;20050;-78
2024/01/11 05:00:22;;;;;;;109.10;44.60;;;-7.90;99.90;;;;;;4991821;28;20046;-78
2024/01/11 05:03:11;;;;;;;96.88;41.33;;;-7.90;99.90;;;;;;4989778;28;20050;-77
2024/01/11 05:05:59;;;;;;;119.68;43.55;;;-7.90;99.90;;;;;;4976029;28;20054;-78
2024/01/11 05:08:47;;;;;;;116.30;45.13;;;-7.80;99.90;;;;;;4980501;28;20471;-77
2024/01/11 05:11:35;;;;;;;104.43;41.78;;;-7.80;99.90;;;;;;4986479;28;20045;-78
2024/01/11 05:14:23;;;;;;;109.15;44.55;;;-7.70;99.90;;;;;;4993189;28;20119;-75
2024/01/11 05:17:10;;;;;;;116.38;44.58;;;-7.80;99.90;;;;;;4995830;28;20038;-77
2024/01/11 05:19:58;;;;;;;107.95;42.88;;;-7.70;99.90;;;;;;4991739;28;20047;-76
2024/01/11 05:22:46;;;;;;;115.70;45.83;;;-7.80;99.90;;;;;;4997079;28;20101;-77
2024/01/11 05:25:35;;;;;;;120.75;47.33;;;-7.90;99.90;;;;;;5008154;28;20034;-77
2024/01/11 05:28:23;;;;;;;120.40;45.00;;;-7.90;99.90;;;;;;4975691;28;20534;-78
2024/01/11 05:31:12;;;;;;;111.13;46.28;;;-8.00;99.90;;;;;;4974569;28;20484;-74
2024/01/11 05:34:00;;;;;;;131.02;49.70;;;-8.00;99.90;;;;;;4990308;28;20053;-75
2024/01/11 05:36:48;;;;;;;127.32;48.58;;;-7.90;99.90;;;;;;4979205;28;20492;-77
2024/01/11 05:39:35;;;;;;;117.88;48.05;;;-7.90;99.90;;;;;;4956474;28;20039;-76
2024/01/11 05:42:24;;;;;;;154.57;60.20;;;-8.00;99.90;;;;;;4970644;28;20062;-74
2024/01/11 05:45:11;;;;;;;148.38;55.17;;;-8.10;99.90;;;;;;4983632;28;20043;-74
2024/01/11 05:48:05;;;;;;;182.18;64.93;;;-8.10;99.90;;;;;;4989895;28;20123;-73
2024/01/11 05:50:53;;;;;;;164.68;61.72;;;-8.10;99.90;;;;;;4988436;28;20522;-73
2024/01/11 05:53:40;;;;;;;179.15;63.97;;;-8.10;99.90;;;;;;4997334;28;20085;-74
2024/01/11 05:56:28;;;;;;;164.55;63.88;;;-8.10;99.90;;;;;;4996941;28;20050;-75
2024/01/11 05:59:16;;;;;;;137.27;53.38;;;-8.10;99.90;;;;;;4976930;28;20101;-76
2024/01/11 06:02:04;;;;;;;140.93;53.35;;;-8.00;99.90;;;;;;4976777;28;20043;-76
2024/01/11 06:04:52;;;;;;;130.38;49.92;;;-7.90;99.90;;;;;;4978393;28;20054;-75
2024/01/11 06:07:39;;;;;;;122.72;47.30;;;-7.80;99.90;;;;;;4974268;28;20121;-77
2024/01/11 06:10:30;;;;;;;128.77;49.58;;;-7.80;99.90;;;;;;4979592;28;20099;-75
2024/01/11 06:13:18;;;;;;;116.57;47.67;;;-7.90;99.90;;;;;;4974579;28;20050;-77
2024/01/11 06:16:07;;;;;;;134.77;52.17;;;-8.00;99.90;;;;;;4975483;28;20043;-77
2024/01/11 06:18:57;;;;;;;123.90;50.08;;;-8.00;99.90;;;;;;4976496;28;20039;-76
2024/01/11 06:21:46;;;;;;;130.73;50.33;;;-8.10;99.90;;;;;;4973818;28;20061;-77
2024/01/11 06:24:35;;;;;;;122.50;50.80;;;-8.10;99.90;;;;;;4984236;28;20050;-77
2024/01/11 06:27:22;;;;;;;129.00;50.88;;;-8.20;99.90;;;;;;4989226;28;20121;-78
2024/01/11 06:30:10;;;;;;;118.45;46.88;;;-8.20;99.90;;;;;;4980784;28;20043;-76
2024/01/11 06:32:57;;;;;;;121.30;47.50;;;-8.10;99.90;;;;;;4978218;28;20039;-77
2024/01/11 06:35:45;;;;;;;126.38;47.08;;;-8.00;99.90;;;;;;4981105;28;20133;-79
2024/01/11 06:38:35;;;;;;;125.57;47.65;;;-8.00;99.90;;;;;;4978248;28;20049;-75
2024/01/11 06:41:22;;;;;;;118.82;45.50;;;-8.00;99.90;;;;;;4980864;28;20046;-76
2024/01/11 06:44:11;;;;;;;110.88;44.20;;;-8.00;99.90;;;;;;4981421;28;20106;-77
2024/01/11 06:47:03;;;;;;;112.13;44.75;;;-8.10;99.90;;;;;;4995774;28;20041;-78
2024/01/11 06:49:53;;;;;;;156.48;58.10;;;-8.20;99.90;;;;;;4993411;28;20050;-75
2024/01/11 06:52:40;;;;;;;131.60;52.30;;;-8.10;99.90;;;;;;4983241;28;20415;-75
2024/01/11 06:55:28;;;;;;;114.57;47.90;;;-8.10;99.90;;;;;;4981841;28;20259;-76
2024/01/11 06:58:16;;;;;;;123.22;48.85;;;-8.10;99.90;;;;;;4977758;28;20046;-77
2024/01/11 07:01:04;;;;;;;115.45;45.28;;;-8.10;99.90;;;;;;4981042;28;20058;-75
2024/01/11 07:03:52;;;;;;;116.90;46.83;;;-8.20;99.90;;;;;;4976319;28;20053;-76
2024/01/11 07:06:40;;;;;;;118.50;47.17;;;-8.20;99.90;;;;;;4982113;28;20046;-77
2024/01/11 07:09:27;;;;;;;143.20;52.58;;;-8.20;99.90;;;;;;4994717;28;20181;-78
2024/01/11 07:12:15;;;;;;;141.02;55.80;;;-8.20;99.90;;;;;;4980443;28;20042;-76
2024/01/11 07:15:04;;;;;;;131.93;54.33;;;-8.20;99.90;;;;;;4979171;28;20050;-78
2024/01/11 07:17:53;;;;;;;144.13;54.30;;;-8.10;99.90;;;;;;4980984;28;20291;-79
2024/01/11 07:20:44;;;;;;;153.63;54.97;;;-8.10;99.90;;;;;;4983824;28;20046;-79
2024/01/11 07:23:32;;;;;;;160.60;57.22;;;-8.10;99.90;;;;;;4970630;28;20145;-78
2024/01/11 07:26:20;;;;;;;146.10;55.05;;;-8.00;99.90;;;;;;4981410;28;20042;-77
2024/01/11 07:29:07;;;;;;;143.98;55.58;;;-8.00;99.90;;;;;;4972544;28;20051;-79
2024/01/11 07:32:00;;;;;;;146.00;55.88;;;-8.00;99.90;;;;;;4967723;28;20144;-77
2024/01/11 07:34:53;;;;;;;150.02;56.08;;;-8.00;99.90;;;;;;4986640;28;20034;-79
2024/01/11 07:37:41;;;;;;;147.90;54.08;;;-8.00;99.90;;;;;;4965628;28;20038;-81
2024/01/11 07:40:29;;;;;;;129.23;53.85;;;-7.80;99.90;;;;;;4968136;28;20054;-80
2024/01/11 07:43:22;;;;;;;138.50;55.55;;;-7.60;99.90;;;;;;4978582;28;20518;-80
2024/01/11 07:46:23;;;;;;;128.63;53.17;;;-7.60;99.90;;;;;;4979783;28;22270;-79
2024/01/11 07:49:28;;;;;;;135.90;52.97;;;-7.50;99.90;;;;;;4963765;28;20721;-80
2024/01/11 07:52:19;;;;;;;138.90;54.78;;;-7.40;99.90;;;;;;4974078;28;20047;-79
2024/01/11 07:55:18;;;;;;;155.35;58.25;;;-7.40;99.90;;;;;;4987090;28;20449;-81
2024/01/11 07:58:07;;;;;;;140.02;55.25;;;-7.20;99.90;;;;;;4970596;28;20125;-82
2024/01/11 08:01:03;;;;;;;134.98;54.60;;;-7.20;99.90;;;;;;4991254;28;20264;-77
2024/01/11 08:03:56;;;;;;;138.95;57.40;;;-7.10;99.90;;;;;;4979360;28;20050;-79
2024/01/11 08:06:47;;;;;;;133.48;56.28;;;-6.90;99.90;;;;;;4977152;28;20053;-81
2024/01/11 08:09:45;;;;;;;131.25;56.58;;;-6.70;99.90;;;;;;4978101;28;20063;-78
2024/01/11 08:12:33;;;;;;;142.93;59.95;;;-6.60;99.90;;;;;;4990509;28;20366;-80
2024/01/11 08:15:29;;;;;;;141.90;55.05;;;-6.30;99.90;;;;;;4991278;28;20184;-80
2024/01/11 08:18:43;;;;;;;133.70;56.20;;;-6.10;99.90;;;;;;4988689;28;20045;-80
2024/01/11 08:21:44;;;;;;;128.90;56.47;;;-5.90;99.90;;;;;;4984640;28;20073;-81
2024/01/11 08:24:56;;;;;;;133.15;54.63;;;-5.60;99.90;;;;;;4982087;28;20042;-82
2024/01/11 08:28:02;;;;;;;129.05;54.45;;;-5.50;99.90;;;;;;5009935;28;20047;-81
2024/01/11 08:31:06;;;;;;;127.88;53.72;;;-5.30;99.90;;;;;;4987534;28;20093;-78
2024/01/11 08:37:41;;;;;;;126.00;53.20;;;-5.10;99.90;;;;;;4984685;28;20045;-80
2024/01/11 08:40:48;;;;;;;125.00;49.55;;;-5.20;99.90;;;;;;4987695;28;20056;-81
2024/01/11 08:43:37;;;;;;;129.40;53.28;;;-5.10;99.90;;;;;;4961691;28;20049;-80
2024/01/11 08:46:43;;;;;;;124.65;56.15;;;-4.80;99.90;;;;;;4982612;28;20162;-79
2024/01/11 08:49:36;;;;;;;134.00;58.30;;;-4.50;99.90;;;;;;4981033;28;20124;-81
2024/01/11 08:52:39;;;;;;;126.45;54.70;;;-4.10;99.90;;;;;;4971080;28;20042;-81
2024/01/11 08:55:33;;;;;;;120.38;52.17;;;-3.80;99.90;;;;;;4974227;28;20038;-81
2024/01/11 08:58:22;;;;;;;124.32;55.42;;;-3.40;99.90;;;;;;4983258;28;20052;-79
2024/01/11 09:01:10;;;;;;;113.07;52.33;;;-3.20;99.90;;;;;;4983065;28;20182;-77
2024/01/11 09:04:08;;;;;;;109.47;53.15;;;-2.90;98.80;;;;;;4984759;28;20066;-79
2024/01/11 09:07:02;;;;;;;112.40;50.80;;;-2.60;99.90;;;;;;4989182;28;20050;-79
2024/01/11 09:10:18;;;;;;;104.63;49.50;;;-3.00;1.00;;;;;;4986650;28;20372;-81
2024/01/11 09:13:15;;;;;;;109.85;49.67;;;-3.00;1.00;;;;;;4981047;28;20043;-80
2024/01/11 09:16:16;;;;;;;100.20;49.60;;;-2.80;1.00;;;;;;4964355;28;20052;-79
2024/01/11 09:19:19;;;;;;;106.97;49.42;;;-2.80;99.90;;;;;;4999074;28;20034;-80
2024/01/11 09:22:16;;;;;;;107.20;48.78;;;-3.20;99.90;;;;;;4994573;28;20348;-82
2024/01/11 09:25:05;;;;;;;101.07;47.40;;;-3.10;99.90;;;;;;4975884;28;20128;-80
2024/01/11 09:27:57;;;;;;;106.03;48.35;;;-3.10;99.90;;;;;;4991232;28;20087;-80
2024/01/11 09:30:47;;;;;;;111.18;48.58;;;-2.90;99.90;;;;;;4979193;28;20408;-80
2024/01/11 09:33:38;;;;;;;103.22;47.85;;;-2.70;99.90;;;;;;4969891;28;20071;-79
2024/01/11 09:36:28;;;;;;;;;;;-2.40;99.90;;;;;;4986187;28;20125;-79
2024/01/11 09:39:16;;;;;;;107.40;43.40;;;-2.10;99.90;;;;;;4994690;28;19988;-80
2024/01/11 09:42:09;;;;;;;95.60;45.63;;;-2.10;29.60;;;;;;4979719;28;20062;-79
2024/01/11 09:45:01;;;;;;;97.15;45.67;;;-1.70;1.00;;;;;;4978959;28;20065;-78
2024/01/11 09:47:52;;;;;;;97.60;46.40;;;-1.20;1.00;;;;;;4963707;28;20050;-79
2024/01/11 09:50:43;;;;;;;83.60;41.55;;;-0.60;1.00;;;;;;4972895;28;20051;-79
2024/01/11 09:53:33;;;;;;;67.18;30.98;;;0.00;5.70;;;;;;4987033;28;20047;-79
2024/01/11 09:56:21;;;;;;;83.90;43.28;;;0.30;99.90;;;;;;4984415;28;20039;-78
2024/01/11 09:59:13;;;;;;;78.00;39.15;;;1.00;1.00;;;;;;4979805;28;20156;-80
2024/01/11 10:02:02;;;;;;;77.70;38.47;;;1.40;1.00;;;;;;4981139;28;20050;-78
2024/01/11 10:04:52;;;;;;;83.13;38.33;;;1.90;99.90;;;;;;4976310;28;20073;-78
2024/01/11 10:07:45;;;;;;;81.90;38.35;;;2.40;1.00;;;;;;4986010;28;20419;-80
2024/01/11 10:10:33;;;;;;;70.13;37.50;;;2.80;99.90;;;;;;4981076;28;20714;-80
2024/01/11 10:13:38;;;;;;;72.82;38.30;;;3.20;99.90;;;;;;4985555;28;20512;-81
2024/01/11 10:16:29;;;;;;;76.32;40.38;;;3.30;97.50;;;;;;4977729;28;20535;-79
2024/01/11 10:19:19;;;;;;;68.68;37.90;;;3.50;39.70;;;;;;4987012;28;20053;-78
2024/01/11 10:22:23;;;;;;;72.15;38.25;;;3.70;1.00;;;;;;4999927;28;20046;-78
2024/01/11 10:25:25;;;;;;;70.93;37.92;;;4.40;1.00;;;;;;4987976;28;20069;-78
2024/01/11 10:28:14;;;;;;;69.22;37.58;;;4.80;1.00;;;;;;4979343;28;20077;-80
2024/01/11 10:31:08;;;;;;;68.55;37.63;;;4.90;1.00;;;;;;4982573;28;20154;-78
2024/01/11 10:37:41;;;;;;;64.70;37.00;;;6.00;1.00;;;;;;4981977;28;20046;-80
2024/01/11 10:44:55;;;;;;;62.95;36.50;;;6.00;99.90;;;;;;4980910;28;20495;-80
2024/01/11 10:48:48;;;;;;;62.80;36.15;;;6.40;99.90;;;;;;4995383;28;20046;-81
2024/01/11 10:52:22;;;;;;;64.00;37.15;;;6.40;1.00;;;;;;4976322;28;20439;-78
2024/01/11 10:55:32;;;;;;;65.97;37.13;;;6.20;1.00;;;;;;4987702;28;20030;-79
2024/01/11 10:58:26;;;;;;;61.85;36.65;;;6.60;1.00;;;;;;4983400;28;20061;-82
2024/01/11 11:02:04;;;;;;;;;;;;;;;;;;;;;
2024/01/11 11:05:09;;;;;;;63.97;36.53;;;7.40;1.00;;;;;;4990985;28;20408;-78
2024/01/11 11:08:01;;;;;;;61.00;36.15;;;7.30;1.00;;;;;;4971308;28;20065;-79
2024/01/11 11:11:08;;;;;;;60.55;35.00;;;7.30;1.00;;;;;;4977266;28;20224;-81
2024/01/11 11:14:05;;;;;;;57.13;34.95;;;7.70;1.00;;;;;;4976272;28;20035;-80
2024/01/11 11:16:58;;;;;;;58.42;34.13;;;7.90;1.00;;;;;;4980404;28;20102;-80
2024/01/11 11:20:00;;;;;;;57.53;35.67;;;8.00;1.00;;;;;;4987896;28;20041;-80
2024/01/11 11:23:11;;;;;;;63.08;35.45;;;8.20;1.00;;;;;;4974959;28;20043;-78
2024/01/11 11:26:10;;;;;;;59.33;35.67;;;8.40;1.00;;;;;;4984061;28;20073;-77
2024/01/11 11:29:19;;;;;;;53.22;32.60;;;8.80;1.00;;;;;;4983911;28;20039;-80
2024/01/11 11:32:57;;;;;;;59.88;35.20;;;8.60;1.00;;;;;;4986180;28;20070;-79
2024/01/11 11:35:55;;;;;;;55.72;34.08;;;8.70;1.00;;;;;;4994768;28;20039;-80
2024/01/11 11:39:03;;;;;;;58.65;34.65;;;8.20;1.00;;;;;;4990800;28;20061;-79
2024/01/11 11:42:32;;;;;;;61.13;35.92;;;7.60;99.90;;;;;;4978663;28;20495;-79
2024/01/11 11:45:42;;;;;;;64.18;35.63;;;7.80;48.60;;;;;;4980889;28;20050;-77
2024/01/11 11:49:09;;;;;;;59.67;35.10;;;8.50;99.90;;;;;;5004249;28;20039;-79
2024/01/11 11:52:17;;;;;;;57.28;34.97;;;8.90;1.00;;;;;;4975150;28;20058;-81
2024/01/11 11:55:33;;;;;;;57.42;33.28;;;9.30;99.90;;;;;;4976781;28;20069;-84
2024/01/11 11:58:29;;;;;;;58.47;34.10;;;8.70;99.90;;;;;;4976203;28;20058;-81
2024/01/11 12:01:23;;;;;;;50.20;32.38;;;8.40;1.00;;;;;;4981426;28;20174;-81
2024/01/11 12:04:22;;;;;;;57.90;34.47;;;9.10;99.90;;;;;;4978089;28;20468;-81
2024/01/11 12:07:17;;;;;;;58.42;34.45;;;10.10;99.90;;;;;;4971453;28;20051;-79
2024/01/11 12:10:10;;;;;;;53.97;32.17;;;10.70;99.90;;;;;;4992841;28;20054;-82
2024/01/11 12:13:04;;;;;;;54.60;34.20;;;10.00;99.90;;;;;;4992410;28;20047;-79
2024/01/11 12:15:59;;;;;;;56.20;33.05;;;9.70;1.00;;;;;;4986425;28;20408;-82
2024/01/11 12:18:54;;;;;;;55.55;33.35;;;9.50;1.00;;;;;;4976369;28;20499;-81
2024/01/11 12:21:47;;;;;;;55.50;33.60;;;10.00;2.20;;;;;;4984917;28;20043;-80
2024/01/11 12:24:42;;;;;;;56.17;34.17;;;10.30;99.90;;;;;;4993158;28;20046;-80
2024/01/11 12:27:30;;;;;;;57.28;34.22;;;9.90;99.90;;;;;;4994385;28;20054;-80
2024/01/11 12:30:18;;;;;;;60.53;34.83;;;9.70;1.00;;;;;;4988996;28;20558;-79
2024/01/11 12:33:17;;;;;;;56.63;33.80;;;9.60;1.00;;;;;;4982845;28;20045;-80
2024/01/11 12:36:15;;;;;;;54.67;33.13;;;10.50;1.00;;;;;;4979960;28;20058;-77
2024/01/11 12:39:10;;;;;;;51.72;31.27;;;10.30;68.50;;;;;;4994250;28;20061;-80
2024/01/11 12:42:02;;;;;;;54.50;33.67;;;11.00;48.20;;;;;;4992538;28;20078;-79
2024/01/11 12:45:13;;;;;;;55.22;33.78;;;10.30;99.90;;;;;;4991135;28;20121;-80
2024/01/11 12:48:07;;;;;;;59.72;36.35;;;9.80;55.00;;;;;;4990431;28;20054;-78
2024/01/11 12:51:02;;;;;;;60.13;34.47;;;9.00;57.10;;;;;;4990889;28;20042;-80
2024/01/11 12:54:23;;;;;;;59.65;34.95;;;8.70;47.50;;;;;;4981117;28;20496;-80
2024/01/11 12:57:32;;;;;;;58.25;33.80;;;9.00;50.40;;;;;;4980130;28;20166;-78
2024/01/11 13:00:39;;;;;;;56.10;33.38;;;9.20;92.60;;;;;;4981491;28;20043;-78
2024/01/11 13:03:46;;;;;;;53.58;33.78;;;9.40;97.10;;;;;;4971549;28;20078;-76
2024/01/11 13:06:42;;;;;;;55.63;33.42;;;8.70;99.90;;;;;;4988044;28;20042;-77
2024/01/11 13:09:36;;;;;;;54.60;34.13;;;9.00;99.90;;;;;;4981083;28;20038;-82
2024/01/11 13:12:37;;;;;;;60.47;35.15;;;9.00;99.90;;;;;;5003359;28;20039;-80
2024/01/11 13:15:31;;;;;;;56.67;34.25;;;9.60;99.90;;;;;;4986154;28;20118;-79
2024/01/11 13:18:20;;;;;;;55.42;32.40;;;9.60;99.90;;;;;;4986906;28;20053;-79
2024/01/11 13:21:08;;;;;;;57.35;32.10;;;9.10;1.00;;;;;;4982073;28;20058;-79
2024/01/11 13:23:56;;;;;;;50.17;31.20;;;9.50;1.00;;;;;;4978507;28;20039;-80
2024/01/11 13:26:55;;;;;;;53.13;31.05;;;10.00;1.00;;;;;;4989988;28;20069;-81
2024/01/11 13:29:46;;;;;;;52.83;30.65;;;10.50;1.00;;;;;;5001070;28;20061;-79
2024/01/11 13:32:35;;;;;;;50.17;32.38;;;10.40;1.00;;;;;;4969993;28;20030;-77
2024/01/11 13:35:34;;;;;;;49.88;30.83;;;10.20;1.00;;;;;;5010247;28;20041;-81
2024/01/11 13:38:34;;;;;;;52.33;31.02;;;9.50;99.90;;;;;;4990773;28;20057;-81
2024/01/11 13:41:43;;;;;;;;;;;;;;;;;;;;;
2024/01/11 13:45:30;;;;;;;57.25;31.98;;;8.10;99.90;;;;;;4984131;28;20118;-81
2024/01/11 13:48:44;;;;;;;49.10;30.98;;;7.70;99.90;;;;;;4975606;28;20380;-82
2024/01/11 13:51:48;;;;;;;56.13;31.33;;;7.60;1.00;;;;;;4988581;28;20050;-80
2024/01/11 13:54:50;;;;;;;60.15;32.38;;;7.60;1.00;;;;;;4989561;28;20046;-79
2024/01/11 13:57:41;;;;;;;59.70;33.05;;;7.40;1.00;;;;;;4995354;28;20128;-81
2024/01/11 14:00:44;;;;;;;55.05;33.67;;;7.20;1.00;;;;;;4981660;28;20042;-78
2024/01/11 14:03:32;;;;;;;59.30;32.35;;;6.90;58.70;;;;;;4997789;28;20125;-78
2024/01/11 14:06:21;;;;;;;59.40;32.10;;;7.00;1.00;;;;;;4963629;28;20126;-77
2024/01/11 14:09:25;;;;;;;55.22;31.77;;;7.30;1.00;;;;;;4995994;28;20070;-79
2024/01/11 14:12:27;;;;;;;58.00;31.85;;;7.50;1.00;;;;;;4977660;28;20069;-81
2024/01/11 14:15:25;;;;;;;57.17;32.55;;;7.20;1.00;;;;;;4979286;28;20049;-81
2024/01/11 14:18:18;;;;;;;64.85;32.20;;;6.50;99.90;;;;;;4979820;28;20050;-78
2024/01/11 14:21:12;;;;;;;61.63;33.33;;;6.70;99.90;;;;;;4992590;28;20105;-80
2024/01/11 14:24:07;;;;;;;61.40;32.85;;;6.40;99.90;;;;;;4987474;28;20043;-80
2024/01/11 14:27:23;;;;;;;58.92;33.70;;;6.00;99.90;;;;;;4992544;28;20047;-81
2024/01/11 14:30:22;;;;;;;67.55;34.60;;;5.60;99.90;;;;;;4993154;28;20078;-79
2024/01/11 14:33:29;;;;;;;66.45;35.30;;;5.50;99.90;;;;;;5001363;28;20419;-81
2024/01/11 14:36:45;;;;;;;64.80;35.15;;;5.20;99.90;;;;;;4989028;28;20106;-81
2024/01/11 14:40:14;;;;;;;71.95;38.40;;;5.20;1.00;;;;;;4976648;28;20046;-81
2024/01/11 14:43:47;;;;;;;68.65;37.47;;;5.10;99.90;;;;;;4980874;28;20058;-81
2024/01/11 14:47:23;;;;;;;71.38;36.58;;;4.70;99.90;;;;;;4982089;28;20074;-83
2024/01/11 14:50:35;;;;;;;66.22;35.90;;;4.40;99.90;;;;;;4965896;28;20062;-80
2024/01/11 14:53:44;;;;;;;68.22;35.63;;;4.20;99.90;;;;;;4977945;28;20567;-81
2024/01/11 14:57:05;;;;;;;73.35;35.92;;;3.80;99.90;;;;;;4990205;28;20035;-79